createdAt,value
2018-04-22T00:00:23.235Z,44.00
2018-04-22T00:02:51.127Z,43.80
2018-04-22T00:05:18.941Z,43.60
2018-04-22T00:07:47.494Z,43.40
2018-04-22T00:10:15.318Z,43.40
2018-04-22T00:12:43.147Z,43.40
2018-04-22T00:15:11.734Z,43.30
2018-04-22T00:17:40.320Z,43.30
2018-04-22T00:20:08.894Z,43.30
2018-04-22T00:22:37.439Z,43.20
2018-04-22T00:25:05.282Z,43.20
2018-04-22T00:27:33.089Z,43.20
2018-04-22T00:30:00.911Z,43.10
2018-04-22T00:32:28.711Z,43.10
2018-04-22T00:34:56.579Z,43.00
2018-04-22T00:37:24.398Z,43.00
2018-04-22T00:39:52.175Z,42.90
2018-04-22T00:42:19.965Z,42.70
2018-04-22T00:44:47.783Z,42.70
2018-04-22T00:47:15.632Z,42.60
2018-04-22T00:49:44.194Z,42.40
2018-04-22T00:52:11.983Z,42.30
2018-04-22T00:54:39.760Z,42.50
2018-04-22T00:57:07.537Z,42.10
2018-04-22T00:59:35.315Z,42.00
2018-04-22T01:02:03.088Z,41.80
2018-04-22T01:04:30.909Z,41.70
2018-04-22T01:06:58.678Z,41.60
2018-04-22T01:09:26.492Z,41.70
2018-04-22T01:11:54.319Z,41.60
2018-04-22T01:14:22.163Z,41.50
2018-04-22T01:16:50.000Z,41.30
2018-04-22T01:19:17.777Z,41.20
2018-04-22T01:21:46.331Z,41.20
2018-04-22T01:24:14.138Z,41.10
2018-04-22T01:26:41.988Z,41.10
2018-04-22T01:29:10.500Z,40.90
2018-04-22T01:31:38.292Z,40.90
2018-04-22T01:34:06.077Z,40.90
2018-04-22T01:36:33.876Z,41.60
2018-04-22T01:39:01.699Z,40.90
2018-04-22T01:41:29.514Z,40.80
2018-04-22T01:43:58.080Z,40.80
2018-04-22T01:46:26.667Z,40.80
2018-04-22T01:48:54.488Z,40.80
2018-04-22T01:51:22.273Z,40.70
2018-04-22T01:53:50.906Z,40.70
2018-04-22T01:56:18.700Z,40.60
2018-04-22T01:58:46.564Z,40.60
2018-04-22T02:01:14.331Z,40.50
2018-04-22T02:03:42.154Z,40.50
2018-04-22T02:06:10.020Z,40.50
2018-04-22T02:08:37.858Z,40.50
2018-04-22T02:11:06.431Z,40.50
2018-04-22T02:13:35.013Z,40.50
2018-04-22T02:16:03.645Z,40.50
2018-04-22T02:18:31.441Z,40.40
2018-04-22T02:20:59.203Z,40.40
2018-04-22T02:23:26.978Z,40.20
2018-04-22T02:25:54.774Z,40.20
2018-04-22T02:28:22.592Z,40.20
2018-04-22T02:33:25.323Z,40.90
2018-04-22T02:35:53.156Z,40.10
2018-04-22T02:38:20.956Z,40.20
2018-04-22T02:40:48.752Z,40.20
2018-04-22T02:43:16.505Z,40.00
2018-04-22T02:45:45.049Z,39.80
2018-04-22T02:48:13.640Z,39.70
2018-04-22T02:50:41.459Z,40.30
2018-04-22T02:53:09.258Z,39.60
2018-04-22T02:55:37.903Z,39.50
2018-04-22T02:58:05.716Z,39.50
2018-04-22T03:00:34.294Z,39.40
2018-04-22T03:03:02.854Z,39.30
2018-04-22T03:05:31.455Z,39.30
2018-04-22T03:08:00.062Z,39.20
2018-04-22T03:10:27.836Z,39.20
2018-04-22T03:12:55.620Z,39.20
2018-04-22T03:15:23.463Z,39.10
2018-04-22T03:17:51.311Z,39.10
2018-04-22T03:20:19.117Z,39.00
2018-04-22T03:22:46.940Z,39.00
2018-04-22T03:25:14.792Z,38.90
2018-04-22T03:27:43.389Z,39.00
2018-04-22T03:30:11.183Z,38.90
2018-04-22T03:32:39.004Z,38.90
2018-04-22T03:35:06.792Z,39.00
2018-04-22T03:37:34.607Z,39.00
2018-04-22T03:40:02.528Z,38.90
2018-04-22T03:42:30.368Z,38.90
2018-04-22T03:44:58.201Z,38.90
2018-04-22T03:47:25.980Z,38.90
2018-04-22T03:49:54.544Z,38.90
2018-04-22T03:52:22.332Z,38.80
2018-04-22T03:54:50.903Z,38.80
2018-04-22T03:57:19.464Z,38.90
2018-04-22T03:59:47.266Z,38.80
2018-04-22T04:02:15.800Z,38.90
2018-04-22T04:04:43.562Z,38.80
2018-04-22T04:07:11.333Z,38.90
2018-04-22T04:09:39.202Z,39.00
2018-04-22T04:12:06.977Z,39.00
2018-04-22T04:14:34.766Z,39.10
2018-04-22T04:17:02.603Z,39.00
2018-04-22T04:19:42.167Z,38.90
2018-04-22T04:22:33.432Z,38.90
2018-04-22T04:25:22.077Z,38.90
2018-04-22T04:27:50.727Z,39.00
2018-04-22T04:30:18.548Z,39.10
2018-04-22T04:32:46.307Z,39.00
2018-04-22T04:35:14.091Z,39.00
2018-04-22T04:37:42.663Z,38.90
2018-04-22T04:40:10.457Z,38.90
2018-04-22T04:42:38.243Z,38.90
2018-04-22T04:45:06.856Z,38.80
2018-04-22T04:47:34.663Z,38.80
2018-04-22T04:50:03.293Z,38.80
2018-04-22T04:52:31.094Z,38.80
2018-04-22T04:54:59.720Z,38.80
2018-04-22T04:57:27.554Z,38.80
2018-04-22T04:59:56.185Z,38.80
2018-04-22T05:02:23.948Z,38.80
2018-04-22T05:04:51.793Z,38.80
2018-04-22T05:07:19.583Z,38.70
2018-04-22T05:09:47.388Z,38.80
2018-04-22T05:12:15.943Z,38.80
2018-04-22T05:14:43.716Z,38.80
2018-04-22T05:17:11.663Z,38.80
2018-04-22T05:19:39.643Z,38.80
2018-04-22T05:22:07.441Z,38.80
2018-04-22T05:24:36.060Z,38.80
2018-04-22T05:27:03.855Z,38.80
2018-04-22T05:29:31.665Z,38.80
2018-04-22T05:31:59.499Z,38.80
2018-04-22T05:34:28.115Z,38.80
2018-04-22T05:36:55.920Z,38.80
2018-04-22T05:39:23.879Z,38.80
2018-04-22T05:41:51.763Z,38.80
2018-04-22T05:44:19.567Z,38.90
2018-04-22T05:46:47.382Z,38.90
2018-04-22T05:49:15.132Z,38.90
2018-04-22T05:51:43.010Z,38.90
2018-04-22T05:54:10.786Z,38.90
2018-04-22T05:56:38.473Z,38.90
2018-04-22T05:59:06.933Z,39.00
2018-04-22T06:01:34.761Z,38.90
2018-04-22T06:04:02.436Z,39.00
2018-04-22T06:06:30.098Z,39.00
2018-04-22T06:08:57.744Z,39.00
2018-04-22T06:11:25.377Z,39.10
2018-04-22T06:13:53.803Z,39.20
2018-04-22T06:16:21.504Z,39.20
2018-04-22T06:18:49.937Z,39.90
2018-04-22T06:21:17.729Z,39.20
2018-04-22T06:23:46.316Z,39.30
2018-04-22T06:26:14.906Z,39.30
2018-04-22T06:28:43.503Z,39.40
2018-04-22T06:31:11.311Z,39.30
2018-04-22T06:33:39.125Z,39.40
2018-04-22T06:36:07.042Z,39.50
2018-04-22T06:38:34.878Z,39.50
2018-04-22T06:41:02.734Z,39.60
2018-04-22T06:43:30.564Z,39.60
2018-04-22T06:45:58.359Z,39.70
2018-04-22T06:48:26.151Z,39.70
2018-04-22T06:50:53.963Z,39.70
2018-04-22T06:53:22.624Z,39.70
2018-04-22T06:55:50.422Z,39.70
2018-04-22T06:58:18.234Z,39.80
2018-04-22T07:00:46.118Z,39.70
2018-04-22T07:03:13.917Z,39.70
2018-04-22T07:05:42.519Z,39.80
2018-04-22T07:08:10.345Z,39.80
2018-04-22T07:10:38.147Z,40.10
2018-04-22T07:13:05.959Z,40.30
2018-04-22T07:15:33.802Z,40.50
2018-04-22T07:18:01.638Z,40.60
2018-04-22T07:20:29.451Z,40.70
2018-04-22T07:22:57.286Z,40.80
2018-04-22T07:25:25.136Z,41.00
2018-04-22T07:27:52.971Z,41.80
2018-04-22T07:30:21.619Z,41.40
2018-04-22T07:32:49.462Z,41.40
2018-04-22T07:35:17.279Z,41.50
2018-04-22T07:37:45.829Z,41.40
2018-04-22T07:40:13.627Z,41.30
2018-04-22T07:42:42.203Z,41.30
2018-04-22T07:45:10.791Z,41.30
2018-04-22T07:47:39.404Z,41.40
2018-04-22T07:50:07.191Z,41.30
2018-04-22T07:52:34.964Z,41.50
2018-04-22T07:55:02.755Z,41.70
2018-04-22T07:57:31.336Z,41.80
2018-04-22T07:59:59.917Z,41.70
2018-04-22T08:02:28.475Z,41.70
2018-04-22T08:04:56.241Z,41.60
2018-04-22T08:07:24.108Z,41.70
2018-04-22T08:09:51.904Z,41.60
2018-04-22T08:12:20.551Z,41.70
2018-04-22T08:14:48.428Z,41.70
2018-04-22T08:17:16.303Z,41.90
2018-04-22T08:19:44.163Z,42.00
2018-04-22T08:22:12.020Z,42.10
2018-04-22T08:24:39.834Z,42.20
2018-04-22T08:27:07.642Z,42.30
2018-04-22T08:29:35.450Z,42.40
2018-04-22T08:32:04.055Z,42.50
2018-04-22T08:34:31.923Z,42.60
2018-04-22T08:36:59.773Z,42.60
2018-04-22T08:39:27.598Z,42.70
2018-04-22T08:41:55.431Z,42.70
2018-04-22T08:44:23.232Z,42.70
2018-04-22T08:46:51.093Z,42.70
2018-04-22T08:49:18.919Z,42.60
2018-04-22T08:51:47.560Z,42.50
2018-04-22T08:54:16.131Z,42.60
2018-04-22T08:56:44.745Z,42.50
2018-04-22T08:59:12.559Z,42.50
2018-04-22T09:01:40.390Z,42.50
2018-04-22T09:04:08.233Z,42.60
2018-04-22T09:06:36.051Z,42.60
2018-04-22T09:09:04.066Z,42.60
2018-04-22T09:11:31.898Z,42.50
2018-04-22T09:13:59.797Z,42.60
2018-04-22T09:16:27.656Z,42.60
2018-04-22T09:18:55.483Z,42.70
2018-04-22T09:21:23.283Z,42.70
2018-04-22T09:23:52.038Z,42.60
2018-04-22T09:26:19.897Z,42.60
2018-04-22T09:28:47.726Z,42.80
2018-04-22T09:31:15.561Z,43.10
2018-04-22T09:33:44.151Z,43.30
2018-04-22T09:36:12.000Z,43.30
2018-04-22T09:38:40.581Z,43.40
2018-04-22T09:41:09.174Z,43.50
2018-04-22T09:43:37.766Z,43.60
2018-04-22T09:46:05.618Z,43.60
2018-04-22T09:48:34.287Z,43.70
2018-04-22T09:51:02.092Z,43.70
2018-04-22T09:53:29.946Z,43.70
2018-04-22T09:55:58.570Z,43.90
2018-04-22T09:58:26.389Z,43.80
2018-04-22T10:01:00.866Z,43.60
2018-04-22T10:03:31.640Z,43.60
2018-04-22T10:06:02.176Z,43.60
2018-04-22T10:08:30.098Z,43.50
2018-04-22T10:10:57.986Z,43.40
2018-04-22T10:13:26.619Z,43.20
2018-04-22T10:15:54.450Z,43.20
2018-04-22T10:18:23.055Z,42.90
2018-04-22T10:20:50.898Z,42.90
2018-04-22T10:23:18.761Z,42.90
2018-04-22T10:25:47.319Z,42.70
2018-04-22T10:28:15.148Z,42.60
2018-04-22T10:30:42.955Z,42.60
2018-04-22T10:33:10.843Z,42.70
2018-04-22T10:35:38.670Z,42.60
2018-04-22T10:38:06.507Z,42.50
2018-04-22T10:40:34.324Z,42.20
2018-04-22T10:43:02.974Z,42.20
2018-04-22T10:45:30.780Z,42.20
2018-04-22T10:47:59.397Z,42.00
2018-04-22T10:50:27.206Z,41.90
2018-04-22T10:52:55.052Z,42.10
2018-04-22T10:55:22.898Z,42.10
2018-04-22T10:57:50.780Z,42.00
2018-04-22T11:00:18.632Z,41.90
2018-04-22T11:02:47.178Z,41.80
2018-04-22T11:05:15.034Z,41.70
2018-04-22T11:07:43.612Z,41.80
2018-04-22T11:10:12.223Z,41.60
2018-04-22T11:12:40.057Z,41.50
2018-04-22T11:15:08.632Z,41.50
2018-04-22T11:17:37.233Z,41.60
2018-04-22T11:20:05.122Z,41.50
2018-04-22T11:22:32.916Z,41.80
2018-04-22T11:25:00.729Z,41.90
2018-04-22T11:27:28.552Z,42.00
2018-04-22T11:29:56.369Z,41.90
2018-04-22T11:32:24.186Z,41.60
2018-04-22T11:34:52.054Z,41.60
2018-04-22T11:37:19.867Z,41.60
2018-04-22T11:39:47.743Z,41.40
2018-04-22T11:42:15.567Z,41.10
2018-04-22T11:44:44.124Z,41.10
2018-04-22T11:47:11.942Z,41.00
2018-04-22T11:49:39.770Z,40.70
2018-04-22T11:52:08.347Z,40.60
2018-04-22T11:54:36.176Z,40.50
2018-04-22T11:57:04.785Z,40.30
2018-04-22T11:59:32.593Z,40.30
2018-04-22T12:02:00.406Z,39.80
2018-04-22T12:04:28.296Z,40.00
2018-04-22T12:06:56.883Z,39.80
2018-04-22T12:09:25.455Z,40.20
2018-04-22T12:11:53.270Z,39.50
2018-04-22T12:14:21.107Z,40.10
2018-04-22T12:16:49.728Z,39.40
2018-04-22T12:19:17.540Z,39.40
2018-04-22T12:21:46.135Z,39.10
2018-04-22T12:24:15.372Z,38.80
2018-04-22T12:26:43.255Z,38.80
2018-04-22T12:29:11.062Z,38.90
2018-04-22T12:31:39.624Z,38.60
2018-04-22T12:34:07.461Z,38.60
2018-04-22T12:36:35.276Z,38.20
2018-04-22T12:39:04.046Z,37.70
2018-04-22T12:41:32.615Z,37.70
2018-04-22T12:44:00.440Z,38.30
2018-04-22T12:46:28.263Z,37.80
2018-04-22T12:48:56.829Z,37.90
2018-04-22T12:51:24.648Z,37.90
2018-04-22T12:53:52.463Z,37.70
2018-04-22T12:56:21.048Z,37.90
2018-04-22T12:58:49.624Z,38.10
2018-04-22T13:01:17.471Z,38.00
2018-04-22T13:03:45.323Z,38.00
2018-04-22T13:06:13.150Z,38.60
2018-04-22T13:08:41.007Z,38.60
2018-04-22T13:11:09.631Z,38.80
2018-04-22T13:13:37.423Z,38.70
2018-04-22T13:16:05.254Z,38.70
2018-04-22T13:18:33.082Z,38.40
2018-04-22T13:21:00.914Z,38.40
2018-04-22T13:23:28.729Z,38.30
2018-04-22T13:25:56.570Z,38.60
2018-04-22T13:28:25.158Z,38.50
2018-04-22T13:30:53.729Z,38.30
2018-04-22T13:33:22.307Z,38.00
2018-04-22T13:35:50.879Z,38.30
2018-04-22T13:38:18.724Z,38.20
2018-04-22T13:40:46.582Z,38.20
2018-04-22T13:43:14.505Z,38.30
2018-04-22T13:45:43.116Z,38.30
2018-04-22T13:48:11.675Z,38.90
2018-04-22T13:50:39.460Z,38.80
2018-04-22T13:53:07.267Z,39.00
2018-04-22T13:55:35.088Z,39.30
2018-04-22T13:58:02.950Z,38.90
2018-04-22T14:00:30.774Z,38.90
2018-04-22T14:02:59.375Z,39.00
2018-04-22T14:05:27.868Z,39.30
2018-04-22T14:07:55.542Z,39.30
2018-04-22T14:10:23.219Z,39.20
2018-04-22T14:12:50.906Z,38.80
2018-04-22T14:15:18.592Z,39.60
2018-04-22T14:17:46.257Z,39.10
2018-04-22T14:20:14.760Z,38.80
2018-04-22T14:22:42.434Z,38.80
2018-04-22T14:25:10.153Z,38.70
2018-04-22T14:27:37.797Z,39.10
2018-04-22T14:30:05.491Z,39.40
2018-04-22T14:32:34.104Z,39.80
2018-04-22T14:35:01.987Z,39.70
2018-04-22T14:37:29.789Z,39.50
2018-04-22T14:39:58.391Z,39.20
2018-04-22T14:42:26.199Z,39.20
2018-04-22T14:45:05.711Z,39.00
2018-04-22T14:47:33.528Z,39.20
2018-04-22T14:50:02.182Z,39.00
2018-04-22T14:52:29.993Z,39.00
2018-04-22T14:54:57.796Z,38.80
2018-04-22T14:57:25.605Z,38.50
2018-04-22T14:59:54.160Z,39.00
2018-04-22T15:02:21.974Z,38.90
2018-04-22T15:04:49.776Z,39.00
2018-04-22T15:07:17.577Z,39.30
2018-04-22T15:09:46.157Z,39.20
2018-04-22T15:12:14.712Z,39.30
2018-04-22T15:14:42.533Z,39.20
2018-04-22T15:17:10.370Z,39.30
2018-04-22T15:19:38.945Z,39.00
2018-04-22T15:22:06.727Z,38.90
2018-04-22T15:24:35.292Z,39.00
2018-04-22T15:27:03.111Z,39.00
2018-04-22T15:29:30.905Z,38.90
2018-04-22T15:31:58.699Z,38.70
2018-04-22T15:34:27.253Z,39.00
2018-04-22T15:36:55.110Z,38.90
2018-04-22T15:39:22.918Z,39.00
2018-04-22T15:41:51.672Z,39.00
2018-04-22T15:44:19.484Z,38.90
2018-04-22T15:46:47.267Z,39.00
2018-04-22T15:49:15.067Z,39.00
2018-04-22T15:51:42.910Z,39.10
2018-04-22T15:54:10.696Z,39.10
2018-04-22T15:56:38.503Z,38.90
2018-04-22T15:59:06.284Z,39.10
2018-04-22T16:01:34.086Z,38.90
2018-04-22T16:04:01.902Z,38.80
2018-04-22T16:06:29.788Z,38.90
2018-04-22T16:08:57.612Z,39.00
2018-04-22T16:11:26.222Z,39.10
2018-04-22T16:13:54.041Z,39.00
2018-04-22T16:16:22.595Z,39.20
2018-04-22T16:18:50.421Z,39.10
2018-04-22T16:21:18.221Z,39.10
2018-04-22T16:23:46.089Z,39.20
2018-04-22T16:26:13.926Z,39.30
2018-04-22T16:28:41.619Z,39.20
2018-04-22T16:31:09.427Z,39.40
2018-04-22T16:33:38.019Z,39.20
2018-04-22T16:36:05.886Z,39.20
2018-04-22T16:38:33.714Z,39.30
2018-04-22T16:41:02.304Z,39.20
2018-04-22T16:43:30.883Z,39.00
2018-04-22T16:45:59.541Z,39.00
2018-04-22T16:48:27.363Z,38.90
2018-04-22T16:50:55.203Z,38.90
2018-04-22T16:53:23.834Z,38.90
2018-04-22T16:55:51.625Z,38.90
2018-04-22T16:58:19.403Z,38.90
2018-04-22T17:00:47.926Z,38.90
2018-04-22T17:03:15.699Z,38.80
2018-04-22T17:05:43.458Z,38.80
2018-04-22T17:08:11.194Z,38.80
2018-04-22T17:10:39.709Z,38.70
2018-04-22T17:13:07.463Z,38.60
2018-04-22T17:15:35.228Z,38.70
2018-04-22T17:18:02.976Z,38.70
2018-04-22T17:20:31.404Z,38.60
2018-04-22T17:22:59.211Z,38.60
2018-04-22T17:25:26.959Z,38.60
2018-04-22T17:27:55.499Z,38.50
2018-04-22T17:30:23.252Z,38.40
2018-04-22T17:32:50.999Z,38.60
2018-04-22T17:35:18.760Z,38.40
2018-04-22T17:37:46.560Z,38.50
2018-04-22T17:40:14.287Z,38.50
2018-04-22T17:42:42.042Z,38.60
2018-04-22T17:45:09.813Z,38.60
2018-04-22T17:47:37.597Z,38.60
2018-04-22T17:50:05.399Z,38.50
2018-04-22T17:52:33.945Z,38.40
2018-04-22T17:55:01.623Z,38.40
2018-04-22T17:57:29.286Z,38.20
2018-04-22T17:59:56.983Z,38.00
2018-04-22T18:02:25.441Z,38.00
2018-04-22T18:04:53.090Z,38.00
2018-04-22T18:07:20.758Z,38.00
2018-04-22T18:09:48.440Z,37.80
2018-04-22T18:12:16.967Z,37.90
2018-04-22T18:14:44.669Z,37.70
2018-04-22T18:17:12.404Z,37.70
2018-04-22T18:19:40.169Z,37.60
2018-04-22T18:22:07.854Z,37.60
2018-04-22T18:24:35.593Z,37.60
2018-04-22T18:27:03.373Z,37.60
2018-04-22T18:29:31.175Z,37.50
2018-04-22T18:31:58.932Z,37.40
2018-04-22T18:34:26.690Z,37.40
2018-04-22T18:36:55.200Z,37.70
2018-04-22T18:39:22.967Z,37.60
2018-04-22T18:41:50.760Z,37.80
2018-04-22T18:44:18.551Z,37.90
2018-04-22T18:46:47.070Z,38.00
2018-04-22T18:49:14.811Z,38.50
2018-04-22T18:51:42.643Z,38.00
2018-04-22T18:54:10.459Z,37.90
2018-04-22T18:56:38.276Z,38.00
2018-04-22T18:59:06.115Z,38.00
2018-04-22T19:01:34.347Z,38.00
2018-04-22T19:04:02.174Z,37.90
2018-04-22T19:06:30.021Z,37.90
2018-04-22T19:08:57.870Z,37.90
2018-04-22T19:11:25.692Z,37.90
2018-04-22T19:13:54.311Z,37.90
2018-04-22T19:16:22.127Z,37.90
2018-04-22T19:18:50.719Z,37.90
2018-04-22T19:21:19.309Z,38.10
2018-04-22T19:23:47.108Z,38.10
2018-04-22T19:26:15.746Z,38.00
2018-04-22T19:28:43.650Z,38.00
2018-04-22T19:31:11.479Z,38.00
2018-04-22T19:33:40.063Z,38.00
2018-04-22T19:36:08.624Z,38.70
2018-04-22T19:38:36.446Z,38.00
2018-04-22T19:41:04.328Z,38.10
2018-04-22T19:46:06.318Z,38.10
2018-04-22T19:48:34.122Z,38.10
2018-04-22T19:51:02.726Z,38.10
2018-04-22T19:53:30.544Z,38.10
2018-04-22T19:55:58.347Z,38.10
2018-04-22T19:58:26.148Z,38.10
2018-04-22T20:00:53.975Z,38.10
2018-04-22T20:03:21.780Z,38.80
2018-04-22T20:05:50.591Z,38.10
2018-04-22T20:08:18.422Z,38.10
2018-04-22T20:10:46.269Z,38.00
2018-04-22T20:13:14.076Z,37.70
2018-04-22T20:15:41.899Z,37.80
2018-04-22T20:18:09.725Z,37.90
2018-04-22T20:20:37.569Z,38.00
2018-04-22T20:23:05.447Z,38.00
2018-04-22T20:25:33.345Z,38.10
2018-04-22T20:28:01.175Z,38.30
2018-04-22T20:30:29.023Z,38.30
2018-04-22T20:32:56.837Z,38.90
2018-04-22T20:35:24.649Z,38.20
2018-04-22T20:37:52.495Z,38.30
2018-04-22T20:40:20.300Z,38.30
2018-04-22T20:42:49.117Z,38.30
2018-04-22T20:45:17.022Z,38.20
2018-04-22T20:47:44.866Z,38.20
2018-04-22T20:50:12.702Z,38.20
2018-04-22T20:52:41.366Z,38.30
2018-04-22T20:55:09.189Z,38.30
2018-04-22T20:57:37.118Z,38.40
2018-04-22T21:00:04.974Z,38.40
2018-04-22T21:02:33.937Z,38.60
2018-04-22T21:05:01.913Z,38.60
2018-04-22T21:07:29.767Z,38.70
2018-04-22T21:09:57.615Z,38.70
2018-04-22T21:12:25.528Z,38.70
2018-04-22T21:14:54.250Z,38.70
2018-04-22T21:17:22.101Z,38.70
2018-04-22T21:19:49.958Z,38.70
2018-04-22T21:22:18.530Z,38.70
2018-04-22T21:24:47.119Z,38.70
2018-04-22T21:27:15.719Z,38.60
2018-04-22T21:29:43.611Z,38.70
2018-04-22T21:32:11.542Z,38.80
2018-04-22T21:34:40.434Z,38.80
2018-04-22T21:37:08.266Z,38.80
2018-04-22T21:39:36.074Z,38.80
2018-04-22T21:42:03.899Z,38.30
2018-04-22T21:44:31.747Z,38.80
2018-04-22T21:46:59.582Z,38.80
2018-04-22T21:49:27.449Z,38.90
2018-04-22T21:51:55.777Z,38.80
2018-04-22T21:54:23.631Z,38.80
2018-04-22T21:56:51.470Z,38.90
2018-04-22T21:59:19.319Z,39.00
2018-04-22T22:01:47.150Z,39.00
2018-04-22T22:04:14.994Z,39.00
2018-04-22T22:06:42.840Z,39.00
2018-04-22T22:09:10.679Z,39.00
2018-04-22T22:11:38.529Z,39.00
2018-04-22T22:14:06.344Z,39.10
2018-04-22T22:16:34.174Z,39.10
2018-04-22T22:19:02.042Z,39.10
2018-04-22T22:21:29.852Z,39.20
2018-04-22T22:23:58.438Z,39.30
2018-04-22T22:26:27.031Z,39.30
2018-04-22T22:28:55.633Z,39.30
2018-04-22T22:31:23.467Z,39.20
2018-04-22T22:33:52.063Z,39.00
2018-04-22T22:36:20.648Z,38.80
2018-04-22T22:38:48.474Z,38.90
2018-04-22T22:41:16.306Z,38.80
2018-04-22T22:43:44.132Z,38.80
2018-04-22T22:46:12.759Z,38.80
2018-04-22T22:48:40.621Z,38.80
2018-04-22T22:51:08.471Z,38.90
2018-04-22T22:53:36.279Z,39.00
2018-04-22T22:56:04.155Z,39.20
2018-04-22T22:58:31.988Z,39.20
2018-04-22T23:00:59.822Z,39.30
2018-04-22T23:03:27.680Z,39.50
2018-04-22T23:05:55.591Z,39.70
2018-04-22T23:08:23.408Z,39.80
2018-04-22T23:10:52.074Z,40.30
2018-04-22T23:13:20.644Z,40.30
2018-04-22T23:15:48.475Z,40.30
2018-04-22T23:18:16.343Z,40.40
2018-04-22T23:20:44.255Z,40.40
2018-04-22T23:23:12.862Z,40.40
2018-04-22T23:25:40.664Z,40.40
2018-04-22T23:28:08.506Z,40.40
2018-04-22T23:30:36.407Z,40.40
2018-04-22T23:33:04.282Z,40.40
2018-04-22T23:35:32.088Z,40.40
2018-04-22T23:37:59.947Z,40.50
2018-04-22T23:40:27.767Z,40.50
2018-04-22T23:42:55.588Z,40.50
2018-04-22T23:45:23.413Z,40.60
2018-04-22T23:47:51.255Z,40.50
2018-04-22T23:50:19.083Z,40.50
2018-04-22T23:52:46.902Z,40.50
2018-04-22T23:55:14.737Z,40.60
2018-04-22T23:57:42.615Z,40.60
